Terminal Aerodrome Forecast
Issued by NWS Wichita, KS

Home | Current Version | Previous Version | Text Only | Print | Product List | Glossary Off
Versions: 1 2 3 4 5 6 7 8 9 10 11 12 13 14 15 16

000
FTUS43 KICT 020425 AAA
TAFICT
TAF AMD
KICT 020425Z 0204/0224 05007KT P6SM BKN070
     FM021200 02004KT P6SM SCT070 BKN300
     FM021800 04007KT P6SM OVC200=

USA.gov is the U.S. government's official web portal to all federal, state and local government web resources and services.